Time;durP1;ratioP1;P1;durP2;ratioP2;P2;SDS_P1;SDS_P2;PMS_P1;PMS_P2;Temp;Humidity;BMP_temperature;BMP_pressure;BME280_temperature;BME280_humidity;BME280_pressure;Samples;Min_cycle;Max_cycle;Signal;HPM_P1;HPM_P2
2022/07/24 00:00:31;;;;;;;2.05;1.58;;;26.50;45.60;;;;;;5013235;28;20048;-53
2022/07/24 00:02:57;;;;;;;2.15;1.42;;;26.50;45.70;;;;;;5009930;28;20050;-55
2022/07/24 00:05:23;;;;;;;2.08;1.52;;;26.50;45.70;;;;;;5013109;28;20026;-54
2022/07/24 00:07:49;;;;;;;2.85;1.42;;;26.40;45.60;;;;;;5012400;28;20030;-52
2022/07/24 00:10:15;;;;;;;1.55;1.38;;;26.40;45.70;;;;;;5012224;28;20022;-53
2022/07/24 00:12:41;;;;;;;1.58;1.48;;;26.40;45.70;;;;;;5011375;28;20438;-53
2022/07/24 00:15:07;;;;;;;1.83;1.60;;;26.40;45.70;;;;;;5013086;28;20034;-54
2022/07/24 00:17:33;;;;;;;2.42;1.67;;;26.40;45.70;;;;;;5010680;28;20037;-52
2022/07/24 00:19:59;;;;;;;2.15;1.60;;;26.40;45.70;;;;;;5011333;28;20029;-55
2022/07/24 00:22:25;;;;;;;2.20;1.30;;;26.40;45.80;;;;;;5011871;28;20131;-54
2022/07/24 00:24:50;;;;;;;2.60;1.30;;;26.40;46.50;;;;;;5011956;28;20033;-53
2022/07/24 00:27:16;;;;;;;1.73;1.38;;;26.40;45.90;;;;;;5011754;28;20445;-54
2022/07/24 00:29:42;;;;;;;4.13;1.50;;;26.40;45.90;;;;;;5011237;28;20034;-53
2022/07/24 00:32:08;;;;;;;4.68;1.50;;;26.40;45.90;;;;;;5011638;28;20040;-54
2022/07/24 00:34:34;;;;;;;1.85;1.50;;;26.40;45.90;;;;;;5012201;28;20132;-54
2022/07/24 00:37:00;;;;;;;1.83;1.58;;;26.30;45.80;;;;;;5011942;28;20022;-52
2022/07/24 00:39:26;;;;;;;2.30;1.45;;;26.30;45.80;;;;;;5011914;28;20338;-57
2022/07/24 00:41:52;;;;;;;1.60;1.50;;;26.30;45.80;;;;;;5012071;28;20045;-51
2022/07/24 00:44:19;;;;;;;2.35;1.52;;;26.30;45.80;;;;;;5011346;28;20030;-55
2022/07/24 00:46:46;;;;;;;3.33;1.77;;;26.30;45.80;;;;;;5010737;28;20033;-53
2022/07/24 00:49:14;;;;;;;1.85;1.60;;;26.30;45.80;;;;;;5011043;28;20030;-52
2022/07/24 00:51:42;;;;;;;1.55;1.35;;;26.30;45.80;;;;;;5011883;28;20041;-57
2022/07/24 00:54:10;;;;;;;1.30;1.15;;;26.30;45.90;;;;;;5010600;28;20034;-51
2022/07/24 00:56:36;;;;;;;2.92;1.65;;;26.30;45.90;;;;;;5011489;28;20032;-50
2022/07/24 00:59:03;;;;;;;2.20;1.48;;;26.30;45.90;;;;;;5009146;28;20044;-53
2022/07/24 01:01:29;;;;;;;2.00;1.40;;;26.30;45.90;;;;;;5011070;28;20060;-55
2022/07/24 01:03:56;;;;;;;2.38;1.38;;;26.30;45.90;;;;;;5013144;28;20449;-55
2022/07/24 01:06:22;;;;;;;2.00;1.50;;;26.30;46.00;;;;;;5011120;28;20457;-53
2022/07/24 01:08:49;;;;;;;3.20;1.60;;;26.30;46.00;;;;;;5003219;28;20041;-53
2022/07/24 01:11:15;;;;;;;1.98;1.60;;;26.20;45.90;;;;;;5010484;28;20420;-51
2022/07/24 01:13:42;;;;;;;1.58;1.33;;;26.30;46.00;;;;;;5010018;28;20113;-53
2022/07/24 01:16:08;;;;;;;1.95;1.58;;;26.20;45.90;;;;;;5011708;28;20026;-53
2022/07/24 01:18:35;;;;;;;1.58;1.48;;;26.20;45.90;;;;;;5010596;28;20051;-54
2022/07/24 01:21:02;;;;;;;1.83;1.40;;;26.20;46.00;;;;;;5010077;28;20071;-54
2022/07/24 01:23:28;;;;;;;1.58;1.48;;;26.20;46.00;;;;;;5010635;28;20026;-54
2022/07/24 01:25:54;;;;;;;2.28;1.70;;;26.20;46.00;;;;;;5010787;28;20022;-56
2022/07/24 01:28:20;;;;;;;1.95;1.60;;;26.20;46.10;;;;;;5010568;28;20037;-55
2022/07/24 01:30:45;;;;;;;1.73;1.48;;;26.20;46.10;;;;;;5011201;28;20036;-53
2022/07/24 01:33:12;;;;;;;2.42;1.90;;;26.20;46.10;;;;;;5008298;28;20034;-51
2022/07/24 01:35:38;;;;;;;3.17;1.65;;;26.20;46.10;;;;;;5011705;28;20057;-55
2022/07/24 01:38:03;;;;;;;3.88;1.67;;;26.20;46.10;;;;;;5004525;28;20030;-54
2022/07/24 01:40:29;;;;;;;2.40;1.75;;;26.10;46.10;;;;;;5010659;28;20045;-55
2022/07/24 01:42:55;;;;;;;1.98;1.58;;;26.20;46.20;;;;;;5011339;28;20018;-52
2022/07/24 01:45:22;;;;;;;2.20;1.55;;;26.20;46.20;;;;;;5011131;28;20346;-55
2022/07/24 01:47:48;;;;;;;1.65;1.50;;;26.20;46.20;;;;;;5010673;28;20458;-55
2022/07/24 01:50:15;;;;;;;1.60;1.48;;;26.10;46.10;;;;;;5010530;28;20100;-55
2022/07/24 01:52:41;;;;;;;1.92;1.38;;;26.10;46.30;;;;;;5010211;28;20430;-55
2022/07/24 01:55:07;;;;;;;1.42;1.33;;;26.10;46.20;;;;;;5009398;28;20354;-55
2022/07/24 01:57:34;;;;;;;3.80;1.75;;;26.10;46.20;;;;;;5010621;28;20034;-50
2022/07/24 02:00:00;;;;;;;2.45;1.88;;;26.10;46.20;;;;;;5010752;28;20038;-53
2022/07/24 02:02:27;;;;;;;3.13;1.90;;;26.10;46.20;;;;;;5010761;28;20408;-54
2022/07/24 02:04:54;;;;;;;1.80;1.70;;;26.10;46.30;;;;;;5009947;28;20087;-53
2022/07/24 02:07:19;;;;;;;2.63;2.05;;;26.10;46.30;;;;;;5010151;28;20112;-52
2022/07/24 02:09:45;;;;;;;3.60;1.73;;;26.00;46.20;;;;;;5009782;28;20109;-51
2022/07/24 02:12:11;;;;;;;2.10;1.80;;;26.00;46.20;;;;;;5010012;28;20021;-54
2022/07/24 02:14:37;;;;;;;2.05;1.80;;;26.00;46.30;;;;;;5010538;28;20639;-53
2022/07/24 02:17:03;;;;;;;2.00;1.63;;;26.00;46.30;;;;;;5010686;28;20124;-54
2022/07/24 02:19:30;;;;;;;2.22;1.42;;;26.00;46.30;;;;;;5008907;28;20041;-53
2022/07/24 02:21:55;;;;;;;2.92;1.77;;;26.00;46.40;;;;;;5010342;28;20409;-54
2022/07/24 02:24:22;;;;;;;2.33;1.92;;;26.00;46.40;;;;;;5010494;28;20125;-54
2022/07/24 02:26:48;;;;;;;2.55;1.73;;;26.00;46.40;;;;;;5010201;28;20022;-52
2022/07/24 02:29:13;;;;;;;1.98;1.58;;;26.00;46.40;;;;;;5009957;28;20030;-54
2022/07/24 02:31:39;;;;;;;2.75;1.80;;;26.00;46.40;;;;;;5008748;28;20512;-54
2022/07/24 02:34:05;;;;;;;1.95;1.75;;;26.00;46.50;;;;;;5010968;28;20361;-53
2022/07/24 02:36:31;;;;;;;1.92;1.50;;;26.00;46.50;;;;;;5010224;28;20105;-51
2022/07/24 02:38:57;;;;;;;1.80;1.52;;;26.00;46.50;;;;;;5009951;28;20045;-53
2022/07/24 02:41:23;;;;;;;2.40;1.65;;;26.00;46.50;;;;;;5010740;28;20080;-53
2022/07/24 02:43:48;;;;;;;2.00;1.75;;;26.00;46.50;;;;;;5008975;28;20080;-52
2022/07/24 02:46:14;;;;;;;2.90;1.85;;;25.90;46.40;;;;;;5010163;28;20026;-53
2022/07/24 02:48:41;;;;;;;3.15;1.80;;;25.90;46.40;;;;;;5009970;28;20113;-52
2022/07/24 02:51:06;;;;;;;1.50;1.40;;;25.90;46.40;;;;;;5009743;28;20026;-50
2022/07/24 02:53:32;;;;;;;2.10;1.77;;;25.90;46.50;;;;;;5009685;28;20057;-51
2022/07/24 02:55:58;;;;;;;1.83;1.50;;;25.90;46.50;;;;;;5008298;28;20037;-54
2022/07/24 02:58:24;;;;;;;2.85;1.92;;;25.90;46.50;;;;;;5009875;28;20044;-50
2022/07/24 03:00:50;;;;;;;2.70;2.00;;;25.90;46.50;;;;;;5009185;28;20323;-53
2022/07/24 03:03:17;;;;;;;3.45;1.95;;;25.90;46.60;;;;;;5010011;28;20046;-54
2022/07/24 03:05:43;;;;;;;2.30;1.80;;;25.90;46.60;;;;;;5010227;28;20357;-52
2022/07/24 03:08:08;;;;;;;2.15;1.77;;;25.80;46.60;;;;;;5009929;28;20018;-51
2022/07/24 03:10:34;;;;;;;2.45;2.00;;;25.80;46.60;;;;;;5012205;28;20429;-51
2022/07/24 03:13:00;;;;;;;3.05;1.80;;;25.90;46.60;;;;;;5012883;28;20345;-54
2022/07/24 03:15:26;;;;;;;2.58;2.00;;;25.80;46.60;;;;;;5012839;28;20187;-56
2022/07/24 03:17:54;;;;;;;2.65;2.08;;;25.80;46.60;;;;;;5013511;28;20121;-51
2022/07/24 03:20:22;;;;;;;2.72;2.10;;;25.80;46.60;;;;;;5013631;28;20033;-54
2022/07/24 03:22:49;;;;;;;2.00;1.80;;;25.80;46.60;;;;;;5012213;28;20038;-52
2022/07/24 03:25:15;;;;;;;1.95;1.70;;;25.80;46.60;;;;;;5010947;28;20079;-52
2022/07/24 03:27:41;;;;;;;3.90;2.20;;;25.80;46.60;;;;;;5012891;28;20453;-55
2022/07/24 03:30:09;;;;;;;2.17;1.83;;;25.80;46.80;;;;;;5013518;28;20049;-54
2022/07/24 03:32:35;;;;;;;2.20;1.73;;;25.80;46.60;;;;;;5012831;28;20479;-54
2022/07/24 03:35:01;;;;;;;3.78;2.47;;;25.80;46.60;;;;;;5010029;28;20029;-55
2022/07/24 03:37:27;;;;;;;2.50;2.08;;;25.80;46.60;;;;;;5012684;28;20033;-54
2022/07/24 03:39:53;;;;;;;2.05;1.85;;;25.80;46.60;;;;;;5012539;28;20099;-53
2022/07/24 03:42:19;;;;;;;2.40;2.20;;;25.80;46.60;;;;;;5009600;28;20034;-54
2022/07/24 03:44:45;;;;;;;2.88;2.03;;;25.70;46.60;;;;;;5011447;28;20432;-53
2022/07/24 03:47:10;;;;;;;2.75;2.10;;;25.80;46.60;;;;;;5012493;28;20017;-52
2022/07/24 03:49:36;;;;;;;2.42;2.03;;;25.80;47.20;;;;;;5013342;28;20052;-51
2022/07/24 03:52:03;;;;;;;4.20;2.20;;;25.70;46.50;;;;;;5011852;28;20030;-50
2022/07/24 03:54:29;;;;;;;2.97;2.45;;;25.70;46.50;;;;;;5011489;28;20346;-48
2022/07/24 03:56:55;;;;;;;2.67;2.33;;;25.70;46.50;;;;;;5011027;28;20032;-51
2022/07/24 03:59:21;;;;;;;2.65;2.35;;;25.80;46.60;;;;;;5012817;28;20126;-49
2022/07/24 04:01:46;;;;;;;3.47;2.30;;;25.70;46.50;;;;;;5012561;28;20428;-52
2022/07/24 04:04:12;;;;;;;2.60;2.10;;;25.70;46.50;;;;;;5012261;28;20908;-52
2022/07/24 04:06:40;;;;;;;3.25;2.00;;;25.70;46.50;;;;;;5012416;28;20041;-51
2022/07/24 04:09:06;;;;;;;2.20;2.00;;;25.70;46.50;;;;;;5011215;28;20034;-55
2022/07/24 04:11:32;;;;;;;3.25;2.45;;;25.70;46.50;;;;;;5011819;28;20487;-51
2022/07/24 04:13:58;;;;;;;2.30;2.10;;;25.70;46.50;;;;;;5012455;28;20052;-52
2022/07/24 04:16:24;;;;;;;3.10;2.47;;;25.70;46.50;;;;;;5009944;28;20081;-52
2022/07/24 04:18:50;;;;;;;3.25;2.40;;;25.70;46.50;;;;;;5014447;28;20116;-52
2022/07/24 04:21:16;;;;;;;3.03;2.17;;;25.70;46.50;;;;;;5012099;28;20441;-51
2022/07/24 04:23:43;;;;;;;2.60;2.30;;;25.60;46.40;;;;;;5010386;28;20079;-54
2022/07/24 04:26:09;;;;;;;3.30;2.15;;;25.70;46.50;;;;;;5011779;28;20030;-55
2022/07/24 04:28:35;;;;;;;3.63;2.45;;;25.60;46.40;;;;;;5012199;28;20022;-55
2022/07/24 04:31:01;;;;;;;3.13;2.42;;;25.70;46.50;;;;;;5011676;28;20022;-55
2022/07/24 04:33:27;;;;;;;4.45;2.30;;;25.70;46.50;;;;;;5014950;28;20657;-54
2022/07/24 04:35:53;;;;;;;2.88;2.33;;;25.70;46.50;;;;;;5012182;28;20049;-52
2022/07/24 04:38:19;;;;;;;3.03;2.15;;;25.60;46.50;;;;;;5010712;28;20072;-53
2022/07/24 04:40:45;;;;;;;2.67;2.17;;;25.60;46.50;;;;;;5012638;28;20034;-52
2022/07/24 04:43:10;;;;;;;3.05;2.53;;;25.60;46.50;;;;;;5011683;28;20607;-52
2022/07/24 04:45:36;;;;;;;3.72;2.17;;;25.60;46.50;;;;;;5011605;28;20036;-55
2022/07/24 04:48:02;;;;;;;3.10;2.25;;;25.60;46.60;;;;;;5012257;28;20064;-55
2022/07/24 04:50:28;;;;;;;2.90;2.25;;;25.60;46.60;;;;;;5011312;28;20030;-53
2022/07/24 04:52:54;;;;;;;2.45;2.03;;;25.60;46.60;;;;;;5011697;28;20080;-50
2022/07/24 04:55:20;;;;;;;2.53;1.90;;;25.60;46.60;;;;;;5012224;28;20049;-54
2022/07/24 04:57:46;;;;;;;3.85;2.50;;;25.60;46.60;;;;;;5011166;28;20096;-53
2022/07/24 05:00:13;;;;;;;3.25;2.90;;;25.60;46.60;;;;;;5011831;28;20357;-55
2022/07/24 05:02:39;;;;;;;2.85;2.55;;;25.60;46.60;;;;;;5010787;28;20489;-52
2022/07/24 05:05:06;;;;;;;3.45;2.72;;;25.60;46.60;;;;;;5011061;28;20058;-55
2022/07/24 05:07:32;;;;;;;3.70;2.42;;;25.60;46.60;;;;;;5008302;28;20022;-51
2022/07/24 05:09:58;;;;;;;3.35;2.22;;;25.70;46.70;;;;;;5012052;28;20061;-52
2022/07/24 05:12:25;;;;;;;5.65;2.65;;;25.60;46.60;;;;;;5010641;28;20030;-51
2022/07/24 05:14:51;;;;;;;2.60;2.20;;;25.60;46.60;;;;;;5013684;28;20038;-55
2022/07/24 05:17:17;;;;;;;3.88;2.40;;;25.60;46.60;;;;;;5010507;28;20099;-54
2022/07/24 05:19:43;;;;;;;5.03;2.75;;;25.60;46.60;;;;;;5010247;28;20375;-54
2022/07/24 05:22:09;;;;;;;2.75;2.33;;;25.60;46.70;;;;;;5011002;28;20026;-53
2022/07/24 05:24:35;;;;;;;3.22;2.60;;;25.60;46.70;;;;;;5011567;28;21318;-51
2022/07/24 05:27:00;;;;;;;4.03;2.65;;;25.70;46.80;;;;;;5011591;28;20508;-50
2022/07/24 05:29:26;;;;;;;3.00;2.70;;;25.60;46.70;;;;;;5011095;28;20030;-51
2022/07/24 05:31:54;;;;;;;3.92;2.90;;;25.60;46.70;;;;;;5009694;28;20057;-52
2022/07/24 05:34:23;;;;;;;3.15;2.65;;;25.60;46.80;;;;;;5011155;28;20729;-53
2022/07/24 05:36:49;;;;;;;4.50;2.70;;;25.60;46.80;;;;;;5008678;28;20034;-54
2022/07/24 05:39:15;;;;;;;4.43;3.45;;;25.60;46.80;;;;;;5012234;28;20044;-52
2022/07/24 05:41:41;;;;;;;4.03;3.17;;;25.60;46.90;;;;;;5010704;28;20018;-51
2022/07/24 05:44:06;;;;;;;5.32;3.40;;;25.60;46.90;;;;;;5011262;28;21150;-51
2022/07/24 05:46:32;;;;;;;3.40;2.80;;;25.60;46.90;;;;;;5010197;28;20022;-52
2022/07/24 05:48:58;;;;;;;4.10;3.13;;;25.60;46.90;;;;;;5010126;28;20091;-53
2022/07/24 05:51:25;;;;;;;5.07;3.55;;;25.60;47.00;;;;;;5010116;28;20034;-54
2022/07/24 05:53:51;;;;;;;4.22;2.85;;;25.60;47.00;;;;;;5010009;28;22202;-53
2022/07/24 05:56:17;;;;;;;4.47;3.47;;;25.60;47.10;;;;;;5011433;28;20026;-49
2022/07/24 05:58:43;;;;;;;4.50;3.33;;;25.60;47.20;;;;;;5009337;28;20420;-53
2022/07/24 06:01:09;;;;;;;3.88;3.08;;;25.60;47.20;;;;;;5008838;28;20057;-52
2022/07/24 06:03:35;;;;;;;3.38;3.08;;;25.60;47.30;;;;;;5010068;28;20021;-48
2022/07/24 06:06:01;;;;;;;3.70;3.30;;;25.60;47.30;;;;;;5010835;28;20053;-52
2022/07/24 06:08:26;;;;;;;4.30;3.20;;;25.60;47.30;;;;;;5011388;28;20469;-47
2022/07/24 06:10:52;;;;;;;3.40;3.10;;;25.60;47.40;;;;;;5009852;28;20026;-49
2022/07/24 06:13:18;;;;;;;3.83;3.42;;;25.60;47.50;;;;;;5013219;28;20041;-52
2022/07/24 06:15:44;;;;;;;3.78;3.15;;;25.60;47.50;;;;;;5013017;28;20026;-52
2022/07/24 06:18:10;;;;;;;4.15;3.63;;;25.60;47.60;;;;;;5009333;28;20112;-51
2022/07/24 06:20:35;;;;;;;4.60;3.40;;;25.60;47.60;;;;;;5011136;28;20026;-47
2022/07/24 06:23:01;;;;;;;4.13;2.83;;;25.60;47.60;;;;;;5009255;28;20045;-53
2022/07/24 06:25:27;;;;;;;3.75;3.20;;;25.60;47.70;;;;;;5010679;28;20036;-47
2022/07/24 06:27:57;;;;;;;3.60;2.85;;;25.60;47.70;;;;;;5009578;28;20030;-52
2022/07/24 06:30:27;;;;;;;5.97;3.72;;;25.60;47.70;;;;;;5007285;28;20029;-52
2022/07/24 06:32:56;;;;;;;4.28;3.10;;;25.60;47.80;;;;;;5009519;28;20113;-53
2022/07/24 06:35:24;;;;;;;4.13;3.08;;;25.60;47.90;;;;;;5008815;28;20349;-50
2022/07/24 06:37:50;;;;;;;3.88;3.47;;;25.60;47.90;;;;;;5012082;28;20026;-60
2022/07/24 06:40:18;;;;;;;4.38;2.67;;;25.60;47.90;;;;;;5010697;28;20123;-48
2022/07/24 06:42:46;;;;;;;5.93;2.90;;;25.60;47.90;;;;;;5009703;28;20022;-52
2022/07/24 06:45:13;;;;;;;5.60;3.10;;;25.60;47.90;;;;;;5012958;28;20037;-52
2022/07/24 06:47:39;;;;;;;5.63;3.10;;;25.70;47.90;;;;;;5012926;28;20022;-49
2022/07/24 06:50:05;;;;;;;4.07;2.88;;;25.60;47.80;;;;;;5014094;28;20095;-53
2022/07/24 06:52:31;;;;;;;5.75;2.95;;;25.60;47.80;;;;;;5012809;28;20038;-47
2022/07/24 06:54:57;;;;;;;4.82;3.38;;;25.60;47.80;;;;;;5013956;28;20137;-49
2022/07/24 06:57:25;;;;;;;4.05;3.25;;;25.60;47.70;;;;;;5014336;28;20109;-48
2022/07/24 06:59:52;;;;;;;3.53;2.70;;;25.60;47.70;;;;;;5012251;28;20069;-49
2022/07/24 07:02:20;;;;;;;4.20;2.88;;;25.60;47.70;;;;;;5012286;28;20061;-50
2022/07/24 07:04:46;;;;;;;5.55;2.90;;;25.60;47.60;;;;;;5017862;28;20040;-48
2022/07/24 07:07:12;;;;;;;5.50;2.53;;;25.60;47.60;;;;;;5013307;28;20026;-51
2022/07/24 07:09:38;;;;;;;6.05;2.85;;;25.60;47.50;;;;;;5012541;28;20408;-47
2022/07/24 07:12:04;;;;;;;5.57;2.53;;;25.60;47.50;;;;;;5013680;28;20022;-47
2022/07/24 07:14:30;;;;;;;3.70;2.55;;;25.70;47.50;;;;;;5014061;28;20091;-51
2022/07/24 07:16:56;;;;;;;3.25;2.42;;;25.70;47.40;;;;;;5013063;28;20034;-52
2022/07/24 07:19:22;;;;;;;3.85;2.72;;;25.60;47.30;;;;;;5015447;28;20110;-54
2022/07/24 07:21:48;;;;;;;3.42;2.38;;;25.60;47.20;;;;;;5013079;28;20042;-53
2022/07/24 07:24:14;;;;;;;4.70;2.72;;;25.60;47.20;;;;;;5010348;28;20152;-50
2022/07/24 07:26:40;;;;;;;4.93;2.58;;;25.70;47.20;;;;;;5017367;28;20034;-51
2022/07/24 07:29:05;;;;;;;7.40;3.20;;;25.60;47.10;;;;;;5015274;28;20478;-53
2022/07/24 07:31:31;;;;;;;2.97;2.35;;;25.60;47.00;;;;;;4998155;28;20045;-54
2022/07/24 07:33:57;;;;;;;2.53;1.95;;;25.60;47.00;;;;;;5000384;28;20077;-52
2022/07/24 07:36:28;;;;;;;3.17;2.33;;;25.60;46.90;;;;;;5017641;28;20033;-52
2022/07/24 07:38:57;;;;;;;4.90;2.90;;;25.60;46.80;;;;;;5016070;28;20025;-52
2022/07/24 07:41:24;;;;;;;3.97;2.35;;;25.60;46.80;;;;;;5015957;28;20034;-52
2022/07/24 07:43:50;;;;;;;3.90;2.58;;;25.60;46.60;;;;;;5018097;28;20029;-54
2022/07/24 07:46:16;;;;;;;2.92;2.20;;;25.70;46.50;;;;;;5017277;28;20033;-52
2022/07/24 07:48:42;;;;;;;4.80;2.42;;;25.60;46.30;;;;;;5017074;28;20034;-55
2022/07/24 07:51:09;;;;;;;4.03;2.53;;;25.60;46.20;;;;;;5016865;28;20041;-51
2022/07/24 07:53:36;;;;;;;2.60;2.15;;;25.60;46.10;;;;;;5012714;28;20045;-54
2022/07/24 07:56:03;;;;;;;2.97;2.28;;;25.70;46.00;;;;;;5012558;28;20029;-52
2022/07/24 07:58:29;;;;;;;2.10;1.80;;;25.70;46.00;;;;;;5016148;28;20449;-51
2022/07/24 08:00:55;;;;;;;2.53;2.22;;;25.70;45.90;;;;;;5016614;28;20124;-54
2022/07/24 08:03:21;;;;;;;3.30;2.20;;;25.70;45.80;;;;;;5016159;28;20018;-52
2022/07/24 08:05:47;;;;;;;2.60;1.98;;;25.70;45.80;;;;;;5017028;28;20045;-55
2022/07/24 08:08:12;;;;;;;2.38;1.95;;;25.70;46.40;;;;;;5016212;28;20038;-56
2022/07/24 08:10:38;;;;;;;2.33;1.67;;;25.70;45.70;;;;;;5015342;28;20029;-55
2022/07/24 08:13:04;;;;;;;2.30;2.10;;;25.70;45.70;;;;;;5015789;28;20038;-54
2022/07/24 08:15:30;;;;;;;3.25;1.67;;;25.70;45.60;;;;;;5016611;28;20098;-52
2022/07/24 08:17:57;;;;;;;3.20;2.15;;;25.70;45.60;;;;;;5016855;28;20033;-55
2022/07/24 08:20:25;;;;;;;3.45;1.85;;;25.70;45.50;;;;;;5014049;28;20061;-53
2022/07/24 08:22:51;;;;;;;1.92;1.60;;;25.70;45.40;;;;;;5015806;28;20030;-55
2022/07/24 08:25:17;;;;;;;4.45;1.80;;;25.80;45.50;;;;;;5014644;28;20034;-54
2022/07/24 08:27:49;;;;;;;2.53;1.60;;;25.70;45.30;;;;;;5015583;28;20399;-56
2022/07/24 08:30:15;;;;;;;2.28;1.80;;;25.80;45.40;;;;;;5016188;28;20022;-58
2022/07/24 08:32:41;;;;;;;1.95;1.60;;;25.80;45.30;;;;;;5016062;28;20030;-62
2022/07/24 08:35:07;;;;;;;3.50;1.77;;;25.80;45.20;;;;;;5017064;28;20034;-61
2022/07/24 08:37:40;;;;;;;1.85;1.55;;;25.80;45.20;;;;;;5015417;28;20037;-61
2022/07/24 08:40:08;;;;;;;3.15;1.38;;;25.80;45.20;;;;;;5015079;28;20053;-54
2022/07/24 08:42:35;;;;;;;2.42;1.50;;;25.80;45.30;;;;;;5014713;28;20087;-53
2022/07/24 08:45:01;;;;;;;1.70;1.40;;;25.80;45.30;;;;;;5015827;28;20425;-50
2022/07/24 08:47:29;;;;;;;2.25;1.65;;;25.80;45.20;;;;;;5016117;28;20048;-53
2022/07/24 08:49:58;;;;;;;2.40;1.77;;;25.80;45.20;;;;;;5015214;28;20038;-53
2022/07/24 08:52:25;;;;;;;2.17;1.60;;;25.80;45.20;;;;;;5015427;28;20376;-53
2022/07/24 08:54:52;;;;;;;3.40;1.58;;;25.80;45.20;;;;;;5014146;28;20405;-53
2022/07/24 08:57:19;;;;;;;2.17;1.60;;;25.80;45.20;;;;;;5015672;28;20061;-54
2022/07/24 08:59:46;;;;;;;1.92;1.60;;;25.80;45.10;;;;;;5015498;28;20064;-57
2022/07/24 09:02:13;;;;;;;1.52;1.38;;;25.80;45.10;;;;;;5015123;28;20030;-54
2022/07/24 09:04:47;;;;;;;2.65;1.52;;;25.90;45.10;;;;;;5013389;28;20070;-51
2022/07/24 09:07:18;;;;;;;1.73;1.33;;;25.90;45.00;;;;;;5014373;28;20034;-53
2022/07/24 09:10:01;;;;;;;1.60;1.20;;;25.90;45.10;;;;;;5015621;28;20045;-55
2022/07/24 09:12:32;;;;;;;2.47;1.38;;;25.90;45.10;;;;;;5013251;28;20339;-54
2022/07/24 09:15:00;;;;;;;3.08;1.42;;;25.90;45.00;;;;;;4996252;28;20034;-51
2022/07/24 09:17:26;;;;;;;7.03;4.18;;;25.90;44.80;;;;;;4996199;28;20117;-54
2022/07/24 09:19:56;;;;;;;9.10;5.45;;;26.00;45.10;;;;;;4995602;28;20049;-51
2022/07/24 09:22:31;;;;;;;14.60;6.90;;;26.00;45.80;;;;;;5010544;28;20418;-52
2022/07/24 09:25:17;;;;;;;9.50;5.95;;;26.00;46.60;;;;;;5005565;28;20022;-50
2022/07/24 09:28:09;;;;;;;13.10;7.18;;;26.10;47.40;;;;;;5015534;28;20038;-53
2022/07/24 09:30:40;;;;;;;12.95;6.95;;;26.10;48.10;;;;;;5008478;28;20038;-54
2022/07/24 09:33:11;;;;;;;13.32;5.93;;;26.20;48.40;;;;;;5015102;28;20030;-54
2022/07/24 09:35:44;;;;;;;9.98;6.05;;;26.20;48.50;;;;;;5015740;28;20038;-52
2022/07/24 09:38:12;;;;;;;15.27;7.53;;;26.20;48.60;;;;;;5015288;28;20045;-53
2022/07/24 09:40:40;;;;;;;13.95;6.88;;;26.20;48.70;;;;;;5015859;28;20029;-61
2022/07/24 09:43:26;;;;;;;15.88;6.25;;;26.30;49.10;;;;;;5011614;28;20072;-61
2022/07/24 09:46:00;;;;;;;9.35;5.05;;;26.30;48.80;;;;;;5005471;28;20034;-59
2022/07/24 09:48:38;;;;;;;8.90;5.00;;;26.30;48.10;;;;;;5010571;28;20044;-60
2022/07/24 09:51:15;;;;;;;6.38;3.58;;;26.30;48.00;;;;;;5011575;28;20357;-61
2022/07/24 09:53:44;;;;;;;5.35;3.47;;;26.30;47.70;;;;;;5010376;28;20045;-60
2022/07/24 09:56:12;;;;;;;5.20;3.00;;;26.30;47.40;;;;;;4995980;28;20026;-58
2022/07/24 09:58:52;;;;;;;4.63;2.08;;;26.20;47.00;;;;;;5009902;28;20045;-53
2022/07/24 10:01:20;;;;;;;7.40;3.20;;;26.30;46.60;;;;;;5008295;28;20361;-56
2022/07/24 10:03:47;;;;;;;8.40;4.40;;;26.30;46.60;;;;;;5010288;28;20034;-53
2022/07/24 10:06:18;;;;;;;12.80;5.03;;;26.30;47.20;;;;;;5010019;28;20109;-55
2022/07/24 10:08:46;;;;;;;10.20;4.78;;;26.30;47.90;;;;;;5009117;28;20048;-57
2022/07/24 10:11:12;;;;;;;9.88;5.43;;;26.30;48.30;;;;;;5008601;28;20036;-54
2022/07/24 10:13:39;;;;;;;8.70;4.63;;;26.40;48.80;;;;;;5012020;28;20026;-55
2022/07/24 10:16:13;;;;;;;7.50;3.97;;;26.40;48.90;;;;;;5001260;28;20069;-53
2022/07/24 10:19:00;;;;;;;8.90;4.32;;;26.50;48.80;;;;;;5011959;28;20038;-57
2022/07/24 10:21:32;;;;;;;6.40;3.65;;;26.50;48.60;;;;;;5000131;28;20041;-51
2022/07/24 10:24:34;;;;;;;5.63;3.60;;;26.50;48.30;;;;;;5017012;28;20064;-50
2022/07/24 10:27:04;;;;;;;4.28;2.72;;;26.50;48.00;;;;;;5011521;28;20034;-52
2022/07/24 10:29:34;;;;;;;3.72;2.67;;;26.50;47.70;;;;;;5012654;28;20033;-55
2022/07/24 10:32:00;;;;;;;3.67;2.50;;;26.60;47.40;;;;;;5017877;28;20072;-53
2022/07/24 10:34:44;;;;;;;3.42;2.17;;;26.60;47.10;;;;;;5018763;28;20045;-51
2022/07/24 10:37:28;;;;;;;2.60;1.92;;;26.60;46.70;;;;;;5017625;28;20025;-53
2022/07/24 10:40:28;;;;;;;2.67;1.75;;;26.60;46.30;;;;;;5013820;28;20425;-52
2022/07/24 10:43:09;;;;;;;1.92;1.55;;;26.60;45.90;;;;;;5014820;28;20037;-50
2022/07/24 10:45:43;;;;;;;3.45;1.67;;;26.60;45.60;;;;;;5014870;28;20079;-53
2022/07/24 10:48:20;;;;;;;1.50;1.38;;;26.60;45.50;;;;;;5011815;28;20156;-53
2022/07/24 10:51:00;;;;;;;2.53;1.65;;;26.60;45.20;;;;;;5011649;28;20409;-50
2022/07/24 10:53:37;;;;;;;1.48;1.20;;;26.60;45.00;;;;;;5010543;28;20048;-51
2022/07/24 10:56:16;;;;;;;1.77;1.40;;;26.60;44.90;;;;;;5011637;28;20544;-51
2022/07/24 10:59:02;;;;;;;1.30;1.13;;;26.60;44.70;;;;;;5011091;28;20033;-54
2022/07/24 11:01:31;;;;;;;4.60;1.45;;;26.60;44.50;;;;;;5014132;28;20029;-53
2022/07/24 11:03:59;;;;;;;1.23;1.13;;;26.60;44.50;;;;;;5013208;28;20467;-50
2022/07/24 11:06:46;;;;;;;1.63;1.30;;;26.60;44.50;;;;;;5005894;28;20385;-53
2022/07/24 11:09:15;;;;;;;2.13;1.42;;;26.60;44.40;;;;;;5011159;28;20038;-55
2022/07/24 11:11:54;;;;;;;1.83;1.42;;;26.60;44.20;;;;;;5014769;28;20026;-56
2022/07/24 11:14:25;;;;;;;1.67;1.30;;;26.60;44.10;;;;;;5015076;28;20457;-56
2022/07/24 11:16:52;;;;;;;1.75;1.10;;;26.60;44.20;;;;;;5012988;28;20354;-57
2022/07/24 11:19:18;;;;;;;1.23;1.08;;;26.70;44.30;;;;;;5010779;28;20083;-56
2022/07/24 11:21:46;;;;;;;1.70;1.40;;;26.60;44.30;;;;;;5008631;28;20441;-53
2022/07/24 11:26:50;;;;;;;1.40;1.17;;;26.60;44.30;;;;;;5012575;28;20048;-55
2022/07/24 11:29:30;;;;;;;1.10;1.00;;;26.60;44.30;;;;;;5012072;28;20109;-54
2022/07/24 11:32:14;;;;;;;1.45;1.30;;;26.70;44.40;;;;;;5010223;28;20026;-59
2022/07/24 11:34:49;;;;;;;1.70;1.33;;;26.70;44.50;;;;;;5009526;28;20450;-50
2022/07/24 11:37:16;;;;;;;1.73;1.40;;;26.70;44.50;;;;;;5008784;28;20377;-54
2022/07/24 11:39:46;;;;;;;1.70;1.20;;;26.70;44.40;;;;;;5012077;28;20511;-54
2022/07/24 11:42:14;;;;;;;1.60;1.23;;;26.70;44.40;;;;;;5011252;28;20109;-55
2022/07/24 11:44:42;;;;;;;1.85;1.52;;;26.70;44.40;;;;;;5012512;28;20335;-53
2022/07/24 11:47:20;;;;;;;1.83;1.33;;;26.70;44.50;;;;;;5007976;28;20092;-49
2022/07/24 11:49:52;;;;;;;1.80;1.42;;;26.70;44.50;;;;;;5011530;28;20461;-53
2022/07/24 11:52:21;;;;;;;1.58;1.10;;;26.70;44.50;;;;;;5009476;28;20342;-51
2022/07/24 11:54:50;;;;;;;1.85;1.30;;;26.70;44.50;;;;;;5012134;28;20461;-53
2022/07/24 11:57:19;;;;;;;1.48;1.30;;;26.70;44.40;;;;;;5011540;28;20026;-51
2022/07/24 11:59:47;;;;;;;2.28;1.20;;;26.70;44.50;;;;;;5011786;28;20037;-49
2022/07/24 12:02:13;;;;;;;1.75;1.33;;;26.70;44.50;;;;;;5010179;28;20079;-51
2022/07/24 12:04:40;;;;;;;1.73;1.30;;;26.70;44.50;;;;;;5011613;28;20030;-47
2022/07/24 12:07:12;;;;;;;2.20;1.23;;;26.70;44.50;;;;;;5009272;28;20034;-51
2022/07/24 12:09:55;;;;;;;2.13;1.10;;;26.70;44.60;;;;;;5011694;28;20030;-49
2022/07/24 12:12:28;;;;;;;1.87;1.30;;;26.70;44.40;;;;;;5010487;28;20065;-51
2022/07/24 12:15:04;;;;;;;1.73;1.30;;;26.70;44.40;;;;;;5010052;28;20449;-49
2022/07/24 12:17:32;;;;;;;1.45;1.17;;;26.70;44.40;;;;;;5010795;28;20471;-54
2022/07/24 12:20:01;;;;;;;2.00;1.30;;;26.70;44.40;;;;;;5009547;28;20056;-55
2022/07/24 12:22:28;;;;;;;1.50;1.23;;;26.70;44.40;;;;;;5009462;28;20036;-53
2022/07/24 12:24:59;;;;;;;1.10;1.00;;;26.70;44.40;;;;;;5008046;28;20465;-51
2022/07/24 12:27:42;;;;;;;1.42;1.00;;;26.70;44.30;;;;;;5014049;28;20105;-51
2022/07/24 12:30:29;;;;;;;1.85;1.50;;;26.70;44.30;;;;;;5015861;28;20030;-55
2022/07/24 12:32:56;;;;;;;1.83;1.40;;;26.70;44.40;;;;;;5015839;28;20346;-53
2022/07/24 12:35:22;;;;;;;1.25;1.08;;;26.70;44.40;;;;;;5010742;28;20033;-53
2022/07/24 12:37:49;;;;;;;1.20;1.10;;;26.70;45.10;;;;;;5011048;28;20026;-53
2022/07/24 12:40:29;;;;;;;1.40;1.30;;;26.70;44.50;;;;;;5010080;28;20120;-49
2022/07/24 12:43:06;;;;;;;1.90;1.15;;;26.70;44.60;;;;;;5011171;28;20041;-55
2022/07/24 12:45:32;;;;;;;1.30;1.20;;;26.70;44.60;;;;;;5014029;28;20457;-54
2022/07/24 12:48:11;;;;;;;3.80;1.20;;;26.70;44.70;;;;;;5015584;28;20060;-51
2022/07/24 12:50:40;;;;;;;1.55;1.20;;;26.70;44.70;;;;;;5014813;28;20056;-51
2022/07/24 12:53:08;;;;;;;1.20;1.10;;;26.70;44.70;;;;;;5010913;28;20095;-52